Time;durP1;ratioP1;P1;durP2;ratioP2;P2;SDS_P1;SDS_P2;PMS_P1;PMS_P2;Temp;Humidity;BMP_temperature;BMP_pressure;BME280_temperature;BME280_humidity;BME280_pressure;Samples;Min_cycle;Max_cycle;Signal;HPM_P1;HPM_P2
2022/04/30 00:02:19;;;;;;;6.50;5.65;;;7.10;99.90;;;;;;4996274;28;20081;-64
2022/04/30 00:04:47;;;;;;;8.77;4.88;;;7.10;99.90;;;;;;5000342;28;20058;-64
2022/04/30 00:07:14;;;;;;;14.43;6.55;;;7.10;99.90;;;;;;5010494;28;20050;-64
2022/04/30 00:09:42;;;;;;;9.82;5.25;;;6.70;99.90;;;;;;5003353;28;20459;-64
2022/04/30 00:12:09;;;;;;;10.63;5.55;;;7.20;99.90;;;;;;4997020;28;20053;-64
2022/04/30 00:14:36;;;;;;;9.93;5.22;;;7.20;99.90;;;;;;4999141;28;20080;-64
2022/04/30 00:17:02;;;;;;;7.80;5.63;;;7.20;99.90;;;;;;4999549;28;20046;-64
2022/04/30 00:19:28;;;;;;;6.60;5.88;;;7.20;99.90;;;;;;4999634;28;20049;-65
2022/04/30 00:21:54;;;;;;;7.28;5.60;;;7.20;99.90;;;;;;5004023;28;20049;-64
2022/04/30 00:24:20;;;;;;;11.55;6.03;;;7.20;99.90;;;;;;5012513;28;20651;-64
2022/04/30 00:26:46;;;;;;;9.10;5.57;;;7.20;99.90;;;;;;5007126;28;20850;-64
2022/04/30 00:29:12;;;;;;;8.20;4.63;;;7.20;99.90;;;;;;5005788;28;20042;-64
2022/04/30 00:31:38;;;;;;;12.30;6.85;;;7.20;99.90;;;;;;5004768;28;20711;-64
2022/04/30 00:34:04;;;;;;;11.05;6.05;;;7.20;99.90;;;;;;5013439;28;20123;-64
2022/04/30 00:36:30;;;;;;;7.03;4.65;;;7.20;99.90;;;;;;5015361;28;20487;-64
2022/04/30 00:38:56;;;;;;;11.27;5.38;;;7.20;99.90;;;;;;5005754;28;20673;-64
2022/04/30 00:41:23;;;;;;;8.02;5.30;;;7.30;99.90;;;;;;5004775;28;20049;-64
2022/04/30 00:43:53;;;;;;;10.18;5.93;;;7.30;99.90;;;;;;5005189;28;20041;-64
2022/04/30 00:46:21;;;;;;;8.32;5.53;;;7.30;99.90;;;;;;5011361;28;20118;-64
2022/04/30 00:48:46;;;;;;;8.15;5.63;;;7.30;99.90;;;;;;5014619;28;20417;-65
2022/04/30 00:51:14;;;;;;;8.43;5.15;;;7.30;99.90;;;;;;5009179;28;20053;-64
2022/04/30 00:53:50;;;;;;;6.20;4.95;;;7.30;99.90;;;;;;5002739;28;20049;-64
2022/04/30 00:56:22;;;;;;;6.25;5.25;;;7.30;99.90;;;;;;5004526;28;20900;-65
2022/04/30 00:58:49;;;;;;;7.10;5.20;;;7.20;99.90;;;;;;5004293;28;20041;-64
2022/04/30 01:01:15;;;;;;;8.63;5.28;;;7.30;99.90;;;;;;5006504;28;20688;-63
2022/04/30 01:03:40;;;;;;;9.43;6.72;;;7.30;99.90;;;;;;5015985;28;20065;-64
2022/04/30 01:06:08;;;;;;;8.55;5.38;;;7.30;99.90;;;;;;5006868;28;20077;-64
2022/04/30 01:08:35;;;;;;;8.25;5.15;;;7.30;99.90;;;;;;5005166;28;20233;-64
2022/04/30 01:11:03;;;;;;;8.80;5.30;;;7.30;99.90;;;;;;5004373;28;20050;-64
2022/04/30 01:13:33;;;;;;;9.10;5.15;;;7.30;99.90;;;;;;5014241;28;20124;-64
2022/04/30 01:16:04;;;;;;;9.68;7.00;;;7.30;99.90;;;;;;5010879;28;20095;-64
2022/04/30 01:18:36;;;;;;;7.68;4.63;;;7.30;99.90;;;;;;5003852;28;20057;-64
2022/04/30 01:21:07;;;;;;;8.65;6.03;;;7.20;99.90;;;;;;5004621;28;20042;-64
2022/04/30 01:23:34;;;;;;;16.00;6.70;;;7.20;99.90;;;;;;5016217;28;20053;-64
2022/04/30 01:26:03;;;;;;;9.50;5.18;;;7.20;99.90;;;;;;5006361;28;20644;-64
2022/04/30 01:28:29;;;;;;;9.25;5.60;;;7.20;99.90;;;;;;5003155;28;20982;-64
2022/04/30 01:30:55;;;;;;;9.35;6.35;;;7.20;99.90;;;;;;5002320;28;20045;-64
2022/04/30 01:38:58;;;;;;;7.07;4.97;;;7.20;99.90;;;;;;4997225;28;20127;-64
2022/04/30 01:41:24;;;;;;;6.57;4.85;;;7.20;99.90;;;;;;5002784;28;20064;-65
2022/04/30 01:43:51;;;;;;;9.98;5.75;;;7.20;99.90;;;;;;4998628;28;20052;-64
2022/04/30 01:46:17;;;;;;;7.15;4.95;;;7.20;99.90;;;;;;5001300;28;20056;-64
2022/04/30 01:48:45;;;;;;;10.82;6.50;;;7.20;99.90;;;;;;5002730;28;20045;-64
2022/04/30 01:51:13;;;;;;;8.95;4.82;;;7.20;99.90;;;;;;5000525;28;20049;-64
2022/04/30 01:53:40;;;;;;;4.80;4.00;;;7.00;99.90;;;;;;5002581;28;20080;-64
2022/04/30 01:56:05;;;;;;;10.32;5.03;;;7.10;99.90;;;;;;5003530;28;20136;-67
2022/04/30 01:58:31;;;;;;;8.23;5.28;;;7.10;99.90;;;;;;5002002;28;20054;-65
2022/04/30 02:00:57;;;;;;;5.30;4.72;;;7.10;99.90;;;;;;5005268;28;20045;-65
2022/04/30 02:03:23;;;;;;;5.68;4.63;;;7.10;99.90;;;;;;5007122;28;20076;-66
2022/04/30 02:05:49;;;;;;;11.93;5.38;;;7.10;99.90;;;;;;5001473;28;20110;-65
2022/04/30 02:08:18;;;;;;;9.48;4.30;;;7.10;99.90;;;;;;5010521;28;20822;-65
2022/04/30 02:10:46;;;;;;;6.32;4.38;;;7.10;99.90;;;;;;5009227;28;20040;-65
2022/04/30 02:13:13;;;;;;;5.20;3.72;;;7.10;99.90;;;;;;5004414;28;20050;-66
2022/04/30 02:15:41;;;;;;;11.05;4.75;;;7.10;99.90;;;;;;5008076;28;20429;-65
2022/04/30 02:18:10;;;;;;;4.13;3.45;;;7.10;99.90;;;;;;5004393;28;20059;-65
2022/04/30 02:20:39;;;;;;;5.65;4.25;;;7.10;99.90;;;;;;5000831;28;20401;-65
2022/04/30 02:23:08;;;;;;;6.70;4.07;;;7.10;99.90;;;;;;5006444;28;20057;-65
2022/04/30 02:25:34;;;;;;;7.10;4.43;;;7.10;99.90;;;;;;4998531;28;20067;-65
2022/04/30 02:28:04;;;;;;;4.70;3.42;;;7.10;99.90;;;;;;5000769;28;20045;-65
2022/04/30 02:30:31;;;;;;;6.03;3.83;;;7.10;99.90;;;;;;5011468;28;20056;-65
2022/04/30 02:33:05;;;;;;;12.38;3.92;;;7.10;99.90;;;;;;5006659;28;20483;-65
2022/04/30 02:35:35;;;;;;;5.85;4.40;;;7.10;99.90;;;;;;5003146;28;20100;-65
2022/04/30 02:38:05;;;;;;;4.75;3.08;;;7.10;99.90;;;;;;5001619;28;20045;-65
2022/04/30 02:40:34;;;;;;;6.07;3.40;;;7.00;99.90;;;;;;5009347;28;20626;-65
2022/04/30 02:43:12;;;;;;;5.18;3.25;;;7.00;99.90;;;;;;4998126;28;20123;-65
2022/04/30 02:45:39;;;;;;;7.07;4.00;;;7.00;99.90;;;;;;5001775;28;20505;-66
2022/04/30 02:48:06;;;;;;;4.43;3.42;;;7.00;99.90;;;;;;5001461;28;20152;-65
2022/04/30 02:50:33;;;;;;;4.43;3.97;;;7.00;99.90;;;;;;5001229;28;20041;-66
2022/04/30 02:52:59;;;;;;;4.10;3.42;;;7.00;99.90;;;;;;5012598;28;20045;-65
2022/04/30 02:55:25;;;;;;;4.03;3.00;;;7.10;99.90;;;;;;5008466;28;20053;-65
2022/04/30 03:00:39;;;;;;;5.72;3.20;;;7.10;99.90;;;;;;5001025;28;20053;-65
2022/04/30 03:03:06;;;;;;;6.75;5.00;;;7.10;99.90;;;;;;5004857;28;20061;-66
2022/04/30 03:05:32;;;;;;;5.00;3.42;;;7.00;99.90;;;;;;5011974;28;20057;-65
2022/04/30 03:08:00;;;;;;;6.55;3.65;;;7.10;99.90;;;;;;5000139;28;20174;-65
2022/04/30 03:10:26;;;;;;;3.45;2.65;;;7.00;99.90;;;;;;5003481;28;20046;-65
2022/04/30 03:12:51;;;;;;;5.05;3.38;;;7.10;99.90;;;;;;5010433;28;20131;-65
2022/04/30 03:15:19;;;;;;;7.20;2.88;;;7.10;99.90;;;;;;5001495;28;20050;-65
2022/04/30 03:23:14;;;;;;;5.72;3.58;;;7.10;99.90;;;;;;5001327;28;20057;-65
2022/04/30 03:25:40;;;;;;;5.57;3.03;;;7.10;99.90;;;;;;5001782;28;20088;-64
2022/04/30 03:28:06;;;;;;;4.03;2.80;;;7.00;99.90;;;;;;5009437;28;20037;-65
2022/04/30 03:30:31;;;;;;;6.45;3.65;;;7.00;99.90;;;;;;5005345;28;20056;-65
2022/04/30 03:32:57;;;;;;;4.10;2.63;;;7.00;99.90;;;;;;5009005;28;20420;-66
2022/04/30 03:35:23;;;;;;;4.43;3.75;;;7.00;99.90;;;;;;5005136;28;20143;-65
2022/04/30 03:37:49;;;;;;;3.88;2.97;;;6.40;99.90;;;;;;5002236;28;20046;-66
2022/04/30 03:40:14;;;;;;;3.60;2.13;;;7.00;99.90;;;;;;5002305;28;20886;-65
2022/04/30 03:42:40;;;;;;;5.25;2.92;;;7.00;99.90;;;;;;5001875;28;20421;-66
2022/04/30 03:45:07;;;;;;;3.28;2.97;;;7.00;99.90;;;;;;5000067;28;20053;-65
2022/04/30 03:47:32;;;;;;;6.05;2.53;;;7.00;99.90;;;;;;5001110;28;20038;-65
2022/04/30 03:49:59;;;;;;;4.38;3.22;;;7.00;99.90;;;;;;5000872;28;20041;-65
2022/04/30 03:52:24;;;;;;;3.92;3.40;;;7.00;99.90;;;;;;4999609;28;20065;-65
2022/04/30 03:54:50;;;;;;;4.18;3.22;;;7.00;99.90;;;;;;5009485;28;20034;-65
2022/04/30 03:57:16;;;;;;;5.43;3.83;;;7.00;99.90;;;;;;5010128;28;20044;-65
2022/04/30 03:59:42;;;;;;;4.97;2.88;;;7.00;99.90;;;;;;4999895;28;20409;-65
2022/04/30 04:02:07;;;;;;;5.38;3.42;;;6.90;99.90;;;;;;5001217;28;20082;-65
2022/04/30 04:04:33;;;;;;;3.17;2.85;;;6.90;99.90;;;;;;5004714;28;20041;-65
2022/04/30 04:06:59;;;;;;;5.45;3.72;;;6.90;99.90;;;;;;5008043;28;20130;-65
2022/04/30 04:09:25;;;;;;;6.72;3.55;;;6.90;99.90;;;;;;5015386;28;20091;-66
2022/04/30 04:11:50;;;;;;;5.95;2.97;;;6.90;99.90;;;;;;5008537;28;20128;-65
2022/04/30 04:19:44;;;;;;;7.25;3.50;;;7.00;99.90;;;;;;5004637;28;20068;-65
2022/04/30 04:22:10;;;;;;;3.85;3.42;;;6.90;99.90;;;;;;5012102;28;20034;-65
2022/04/30 04:27:20;;;;;;;4.00;3.13;;;7.00;99.90;;;;;;5005007;28;20053;-65
2022/04/30 04:29:46;;;;;;;5.80;3.75;;;7.00;99.90;;;;;;5006644;28;20045;-65
2022/04/30 04:32:12;;;;;;;9.82;4.35;;;7.00;99.90;;;;;;5015234;28;20041;-66
2022/04/30 04:34:38;;;;;;;5.78;3.42;;;7.00;99.90;;;;;;5008571;28;20041;-65
2022/04/30 04:37:04;;;;;;;8.43;3.35;;;7.00;99.90;;;;;;5001221;28;21134;-66
2022/04/30 04:39:29;;;;;;;5.43;3.58;;;7.00;99.90;;;;;;5004158;28;20148;-64
2022/04/30 04:41:55;;;;;;;5.10;3.28;;;7.00;99.90;;;;;;5004001;28;20045;-65
2022/04/30 04:44:21;;;;;;;4.10;3.15;;;7.10;99.90;;;;;;5007136;28;20567;-64
2022/04/30 04:46:47;;;;;;;4.85;3.22;;;7.10;99.90;;;;;;5017263;28;20079;-64
2022/04/30 04:49:14;;;;;;;5.15;3.28;;;7.10;99.90;;;;;;5005992;28;20132;-64
2022/04/30 04:51:39;;;;;;;4.85;3.28;;;7.10;99.90;;;;;;5003468;28;20056;-67
2022/04/30 04:54:05;;;;;;;5.97;3.30;;;7.10;99.90;;;;;;5002361;28;20053;-64
2022/04/30 04:56:31;;;;;;;4.45;3.10;;;7.20;99.90;;;;;;5003199;28;20037;-64
2022/04/30 04:58:58;;;;;;;4.82;3.25;;;7.20;99.90;;;;;;5000771;28;20048;-64
2022/04/30 05:01:24;;;;;;;6.20;3.85;;;7.30;99.90;;;;;;5003907;28;20041;-64
2022/04/30 05:03:50;;;;;;;6.45;2.85;;;7.30;99.90;;;;;;5004278;28;20210;-65
2022/04/30 05:06:15;;;;;;;6.80;3.70;;;7.30;99.90;;;;;;5004539;28;20050;-65
2022/04/30 05:08:41;;;;;;;4.25;3.30;;;7.40;99.90;;;;;;5004166;28;20225;-65
2022/04/30 05:11:06;;;;;;;8.38;3.53;;;7.40;99.90;;;;;;5003244;28;20053;-65
2022/04/30 05:13:32;;;;;;;4.55;3.95;;;7.50;99.90;;;;;;5002379;28;20195;-65
2022/04/30 05:15:58;;;;;;;4.90;3.45;;;7.60;99.90;;;;;;5011883;28;20352;-65
2022/04/30 05:18:23;;;;;;;4.82;2.97;;;7.60;99.90;;;;;;5006860;28;20047;-65
2022/04/30 05:20:49;;;;;;;6.35;3.63;;;7.60;99.90;;;;;;5003663;28;20136;-65
2022/04/30 05:23:15;;;;;;;5.43;3.63;;;7.60;99.90;;;;;;5013975;28;20418;-65
2022/04/30 05:25:40;;;;;;;4.88;2.88;;;7.70;99.90;;;;;;5004603;28;20099;-65
2022/04/30 05:28:10;;;;;;;5.07;3.50;;;7.70;99.90;;;;;;5002443;28;20041;-65
2022/04/30 05:30:36;;;;;;;4.15;3.30;;;7.80;99.90;;;;;;5003576;28;21880;-65
2022/04/30 05:33:02;;;;;;;5.35;3.22;;;7.90;99.90;;;;;;5002486;28;20123;-65
2022/04/30 05:35:27;;;;;;;5.60;3.67;;;7.90;99.90;;;;;;5002942;28;20088;-65
2022/04/30 05:37:53;;;;;;;6.57;3.53;;;8.00;99.90;;;;;;5003043;28;20196;-65
2022/04/30 05:40:19;;;;;;;4.93;3.08;;;8.00;99.90;;;;;;5002312;28;20037;-65
2022/04/30 05:42:44;;;;;;;5.85;3.92;;;8.10;99.90;;;;;;5015112;28;20064;-65
2022/04/30 05:45:10;;;;;;;4.45;3.78;;;8.20;99.90;;;;;;5010927;28;20080;-65
2022/04/30 05:47:37;;;;;;;4.45;3.47;;;8.30;99.90;;;;;;5003200;28;20038;-65
2022/04/30 05:50:06;;;;;;;5.97;3.40;;;8.40;99.90;;;;;;5003833;28;20053;-65
2022/04/30 05:52:34;;;;;;;4.05;3.25;;;8.40;99.90;;;;;;5016161;28;20049;-65
2022/04/30 05:55:01;;;;;;;5.50;3.47;;;8.50;99.90;;;;;;5007232;28;20046;-65
2022/04/30 05:57:27;;;;;;;5.25;3.65;;;8.60;99.90;;;;;;5003718;28;20177;-65
2022/04/30 05:59:53;;;;;;;5.35;3.97;;;8.60;99.90;;;;;;5002439;28;20041;-65
2022/04/30 06:02:19;;;;;;;3.88;3.38;;;8.70;99.90;;;;;;4999380;28;20086;-65
2022/04/30 06:04:46;;;;;;;5.05;3.17;;;8.80;99.90;;;;;;5006085;28;20092;-65
2022/04/30 06:07:12;;;;;;;4.95;4.15;;;8.90;99.90;;;;;;5014440;28;20128;-65
2022/04/30 06:09:37;;;;;;;5.85;3.50;;;9.00;99.90;;;;;;5002142;28;20053;-65
2022/04/30 06:12:04;;;;;;;7.85;4.50;;;9.10;99.90;;;;;;5001009;28;20045;-65
2022/04/30 06:14:29;;;;;;;5.18;3.95;;;9.10;99.90;;;;;;5000365;28;20731;-65
2022/04/30 06:17:00;;;;;;;5.88;3.78;;;9.20;99.90;;;;;;4999112;28;20550;-65
2022/04/30 06:19:26;;;;;;;5.72;3.13;;;9.20;99.90;;;;;;4999620;28;20619;-65
2022/04/30 06:21:53;;;;;;;9.45;4.00;;;9.30;99.90;;;;;;4999258;28;20041;-65
2022/04/30 06:24:19;;;;;;;7.32;3.28;;;9.30;99.90;;;;;;4999120;28;20168;-65
2022/04/30 06:26:45;;;;;;;4.38;2.92;;;9.40;99.90;;;;;;5000213;28;20101;-65
2022/04/30 06:29:11;;;;;;;4.72;3.55;;;9.50;99.90;;;;;;5000215;28;20793;-66
2022/04/30 06:31:37;;;;;;;4.45;3.03;;;9.50;99.90;;;;;;5011403;28;20045;-67
2022/04/30 06:34:03;;;;;;;7.60;4.05;;;9.50;99.90;;;;;;5000192;28;20454;-67
2022/04/30 06:36:29;;;;;;;6.32;3.35;;;9.50;99.90;;;;;;4999536;28;20041;-66
2022/04/30 06:38:55;;;;;;;5.85;3.53;;;9.60;99.90;;;;;;4999976;28;20063;-66
2022/04/30 06:41:23;;;;;;;5.20;3.53;;;9.70;99.90;;;;;;4998100;28;20068;-67
2022/04/30 06:43:50;;;;;;;3.67;3.22;;;9.70;99.90;;;;;;4996183;28;20340;-66
2022/04/30 06:46:17;;;;;;;5.32;3.30;;;9.70;99.90;;;;;;4995780;28;20121;-67
2022/04/30 06:48:44;;;;;;;4.20;2.90;;;9.70;99.90;;;;;;4996125;28;20049;-67
2022/04/30 06:51:10;;;;;;;3.60;2.92;;;9.70;99.90;;;;;;4995530;28;20049;-66
2022/04/30 06:59:10;;;;;;;4.60;3.72;;;9.80;99.90;;;;;;5008280;28;20858;-66
2022/04/30 07:01:59;;;;;;;4.32;3.65;;;9.90;99.90;;;;;;4998073;28;20050;-66
2022/04/30 07:04:25;;;;;;;5.85;3.88;;;10.00;99.90;;;;;;5000963;28;20821;-66
2022/04/30 07:06:52;;;;;;;3.95;3.10;;;10.00;99.90;;;;;;4999539;28;20144;-66
2022/04/30 07:09:17;;;;;;;6.80;4.22;;;10.00;99.90;;;;;;4993643;28;20106;-66
2022/04/30 07:11:44;;;;;;;6.47;4.00;;;10.00;99.90;;;;;;4993278;28;20072;-64
2022/04/30 07:14:11;;;;;;;4.53;3.30;;;10.10;99.90;;;;;;4994216;28;20153;-65
2022/04/30 07:16:36;;;;;;;4.13;3.05;;;10.10;99.90;;;;;;4997908;28;20560;-65
2022/04/30 07:19:03;;;;;;;5.13;3.58;;;10.20;99.90;;;;;;4996991;28;20045;-65
2022/04/30 07:21:31;;;;;;;6.00;3.60;;;10.20;99.90;;;;;;5005624;28;20111;-65
2022/04/30 07:24:00;;;;;;;6.03;3.28;;;10.30;99.90;;;;;;5006003;28;20054;-64
2022/04/30 07:26:26;;;;;;;3.80;3.30;;;10.40;99.90;;;;;;4996825;28;20057;-65
2022/04/30 07:28:52;;;;;;;7.10;3.90;;;10.50;99.90;;;;;;4992856;28;20818;-65
2022/04/30 07:31:18;;;;;;;5.20;3.83;;;10.70;99.90;;;;;;4993174;28;20049;-65
2022/04/30 07:33:44;;;;;;;5.82;4.15;;;10.90;99.90;;;;;;4992816;28;20050;-65
2022/04/30 07:36:09;;;;;;;6.30;3.92;;;11.10;99.90;;;;;;4994852;28;20514;-65
2022/04/30 07:38:35;;;;;;;3.95;3.30;;;11.10;99.90;;;;;;4992100;28;20050;-66
2022/04/30 07:41:01;;;;;;;4.38;3.35;;;11.20;99.90;;;;;;4994457;28;20043;-65
2022/04/30 07:43:26;;;;;;;3.20;2.90;;;11.30;99.90;;;;;;4994662;28;20140;-65
2022/04/30 07:45:52;;;;;;;5.40;3.28;;;11.40;99.90;;;;;;4993747;28;20080;-65
2022/04/30 07:48:17;;;;;;;4.70;3.92;;;11.40;99.90;;;;;;4994740;28;20138;-65
2022/04/30 07:50:45;;;;;;;5.38;3.00;;;11.50;99.90;;;;;;4996862;28;20632;-65
2022/04/30 07:53:13;;;;;;;5.82;3.55;;;11.40;99.90;;;;;;4996275;28;20063;-65
2022/04/30 07:55:40;;;;;;;3.28;2.95;;;11.40;99.90;;;;;;4990288;28;20580;-65
2022/04/30 07:58:06;;;;;;;5.82;3.40;;;11.60;99.90;;;;;;4994203;28;20402;-65
2022/04/30 08:00:31;;;;;;;4.63;2.75;;;11.80;99.90;;;;;;4997626;28;20631;-66
2022/04/30 08:02:58;;;;;;;4.35;3.17;;;11.90;99.90;;;;;;4997714;28;20060;-65
2022/04/30 08:05:27;;;;;;;6.22;3.10;;;12.10;99.90;;;;;;4999761;28;20124;-65
2022/04/30 08:07:56;;;;;;;9.05;3.20;;;12.00;99.90;;;;;;4997806;28;20041;-65
2022/04/30 08:10:22;;;;;;;5.53;3.60;;;12.00;99.90;;;;;;4997553;28;20069;-65
2022/04/30 08:12:55;;;;;;;3.78;2.92;;;12.20;99.90;;;;;;5000510;28;20041;-65
2022/04/30 08:15:22;;;;;;;4.13;3.28;;;12.20;99.90;;;;;;4999945;28;20139;-66
2022/04/30 08:17:48;;;;;;;3.90;3.08;;;12.10;99.90;;;;;;4998130;28;20088;-66
2022/04/30 08:20:13;;;;;;;5.28;3.45;;;11.90;99.90;;;;;;5000553;28;20137;-66
2022/04/30 08:22:39;;;;;;;4.20;3.40;;;12.00;99.90;;;;;;4997918;28;20786;-66
2022/04/30 08:25:05;;;;;;;5.82;3.00;;;12.10;99.90;;;;;;5007376;28;20053;-63
2022/04/30 08:27:31;;;;;;;4.38;3.17;;;12.20;99.90;;;;;;4999938;28;20053;-65
2022/04/30 08:29:56;;;;;;;5.20;3.05;;;12.30;99.90;;;;;;5004278;28;20048;-65
2022/04/30 08:32:25;;;;;;;4.20;2.97;;;12.30;99.90;;;;;;5000737;28;20042;-66
2022/04/30 08:34:52;;;;;;;5.18;3.80;;;12.10;99.90;;;;;;5000183;28;20095;-65
2022/04/30 08:37:18;;;;;;;5.82;4.03;;;12.10;99.90;;;;;;5000792;28;20077;-65
2022/04/30 08:39:44;;;;;;;4.13;2.70;;;12.10;99.90;;;;;;5000776;28;20189;-65
2022/04/30 08:42:12;;;;;;;6.72;3.80;;;12.20;99.90;;;;;;4998917;28;20924;-67
2022/04/30 08:44:38;;;;;;;6.88;4.60;;;12.40;99.90;;;;;;4999237;28;20046;-66
2022/04/30 08:47:05;;;;;;;4.35;3.95;;;12.50;99.90;;;;;;4999506;28;20050;-65
2022/04/30 08:49:31;;;;;;;3.33;2.60;;;12.50;99.90;;;;;;4997908;28;20049;-65
2022/04/30 08:51:57;;;;;;;5.07;3.72;;;12.80;99.90;;;;;;4997765;28;20053;-65
2022/04/30 08:54:23;;;;;;;4.40;3.17;;;12.60;99.90;;;;;;5000441;28;20512;-65
2022/04/30 08:56:56;;;;;;;5.28;3.35;;;12.70;99.90;;;;;;4999845;28;20946;-65
2022/04/30 08:59:21;;;;;;;;;;;12.90;99.90;;;;;;5002877;28;20049;-66
2022/04/30 09:01:49;;;;;;;5.82;3.53;;;13.10;99.90;;;;;;5001166;28;20597;-66
2022/04/30 09:04:15;;;;;;;4.65;3.53;;;13.10;99.90;;;;;;4999376;28;20379;-65
2022/04/30 09:06:49;;;;;;;5.18;3.47;;;13.10;99.90;;;;;;5005770;28;20111;-65
2022/04/30 09:09:23;;;;;;;3.75;3.03;;;13.10;99.90;;;;;;5002205;28;20041;-65
2022/04/30 09:11:50;;;;;;;5.05;3.40;;;13.40;99.90;;;;;;4998041;28;20814;-65
2022/04/30 09:14:26;;;;;;;4.38;3.10;;;13.30;99.90;;;;;;5001772;28;20058;-65
2022/04/30 09:17:06;;;;;;;3.70;3.40;;;13.30;99.90;;;;;;5006802;28;20034;-65
2022/04/30 09:19:52;;;;;;;5.57;3.40;;;13.50;99.90;;;;;;5007852;28;20041;-65
2022/04/30 09:22:33;;;;;;;2.85;2.47;;;13.70;99.50;;;;;;5003519;28;20100;-65
2022/04/30 09:25:00;;;;;;;5.43;2.95;;;14.20;99.90;;;;;;5000565;28;20567;-66
2022/04/30 09:27:26;;;;;;;8.43;3.80;;;14.30;99.90;;;;;;4999364;28;20049;-66
2022/04/30 09:29:52;;;;;;;6.63;3.33;;;14.50;99.90;;;;;;5001237;28;20058;-65
2022/04/30 09:32:23;;;;;;;3.83;2.75;;;14.30;99.90;;;;;;5006994;28;20056;-65
2022/04/30 09:37:43;;;;;;;3.38;2.80;;;14.20;99.90;;;;;;5000950;28;20547;-65
2022/04/30 09:40:15;;;;;;;4.47;2.88;;;14.30;99.90;;;;;;4998418;28;20049;-65
2022/04/30 09:42:42;;;;;;;4.15;2.67;;;13.90;99.00;;;;;;5001384;28;20576;-66
2022/04/30 09:45:20;;;;;;;3.42;2.95;;;13.90;99.90;;;;;;5003552;28;20037;-65
2022/04/30 09:47:47;;;;;;;3.58;3.15;;;13.80;97.90;;;;;;5000184;28;20265;-65
2022/04/30 09:55:44;;;;;;;6.95;2.90;;;13.60;99.80;;;;;;5001745;28;20053;-65
2022/04/30 09:58:15;;;;;;;3.58;2.85;;;13.70;97.60;;;;;;5012135;28;20150;-65
2022/04/30 10:00:41;;;;;;;3.78;2.30;;;14.10;96.80;;;;;;5004406;28;20049;-65
2022/04/30 10:03:08;;;;;;;4.15;2.47;;;14.30;96.90;;;;;;5000445;28;20053;-65
2022/04/30 10:05:36;;;;;;;5.35;3.38;;;14.00;97.00;;;;;;5000647;28;20503;-65
2022/04/30 10:08:02;;;;;;;3.45;3.08;;;13.80;98.00;;;;;;4999901;28;20065;-65
2022/04/30 10:10:41;;;;;;;4.25;2.78;;;13.60;96.60;;;;;;4999899;28;20117;-65
2022/04/30 10:13:39;;;;;;;4.65;3.15;;;13.30;96.60;;;;;;4998335;28;20918;-65
2022/04/30 10:16:11;;;;;;;5.00;3.25;;;12.90;97.50;;;;;;5000588;28;20842;-65
2022/04/30 10:18:43;;;;;;;6.20;3.03;;;12.70;99.70;;;;;;4996961;28;20045;-65
2022/04/30 10:21:18;;;;;;;5.47;3.78;;;12.70;99.90;;;;;;4999570;28;20056;-65
2022/04/30 10:23:44;;;;;;;4.50;3.20;;;12.30;99.90;;;;;;4999443;28;20053;-65
2022/04/30 10:26:11;;;;;;;5.90;3.75;;;12.40;99.90;;;;;;5000771;28;20046;-65
2022/04/30 10:28:36;;;;;;;4.70;3.50;;;12.40;99.90;;;;;;4999746;28;22195;-65
2022/04/30 10:31:11;;;;;;;8.20;3.80;;;12.30;99.90;;;;;;5006847;28;20096;-65
2022/04/30 10:33:50;;;;;;;5.38;3.40;;;12.20;99.90;;;;;;5004434;28;20064;-65
2022/04/30 10:36:16;;;;;;;3.65;3.30;;;12.10;99.90;;;;;;5000010;28;20054;-66
2022/04/30 10:38:52;;;;;;;6.90;3.50;;;12.00;99.90;;;;;;5001372;28;20070;-65
2022/04/30 10:41:18;;;;;;;5.63;3.58;;;11.80;99.90;;;;;;5002970;28;20957;-65
2022/04/30 10:43:43;;;;;;;4.75;3.28;;;11.80;99.90;;;;;;5003037;28;20049;-65
2022/04/30 10:46:23;;;;;;;4.03;3.20;;;11.90;99.90;;;;;;4999679;28;20486;-65
2022/04/30 10:48:49;;;;;;;4.43;3.22;;;11.90;99.90;;;;;;4998745;28;20128;-64
2022/04/30 10:51:31;;;;;;;4.88;3.17;;;11.80;99.90;;;;;;5004513;28;20846;-65
2022/04/30 10:53:58;;;;;;;4.88;3.65;;;11.80;99.90;;;;;;5009148;28;20083;-64
2022/04/30 10:56:27;;;;;;;4.22;3.17;;;11.80;99.90;;;;;;5003368;28;20971;-65
2022/04/30 10:58:53;;;;;;;7.35;3.33;;;11.90;99.90;;;;;;4998589;28;20422;-65
2022/04/30 11:01:19;;;;;;;3.83;2.85;;;11.80;99.90;;;;;;5005529;28;20574;-65
2022/04/30 11:03:48;;;;;;;4.15;2.83;;;11.80;99.90;;;;;;4998526;28;21052;-64
2022/04/30 11:06:26;;;;;;;7.55;3.05;;;11.90;99.90;;;;;;5007417;28;20120;-63
2022/04/30 11:08:57;;;;;;;3.72;3.15;;;12.10;99.90;;;;;;5008564;28;20132;-64
2022/04/30 11:11:23;;;;;;;4.30;3.40;;;12.20;99.90;;;;;;5000320;28;20041;-63
2022/04/30 11:14:19;;;;;;;4.82;2.92;;;12.00;99.90;;;;;;4998721;28;20619;-64
2022/04/30 11:16:49;;;;;;;3.10;2.70;;;11.90;99.90;;;;;;4996678;28;20175;-64
2022/04/30 11:19:18;;;;;;;3.45;3.05;;;12.00;99.90;;;;;;5012015;28;20161;-64
2022/04/30 11:21:50;;;;;;;4.00;3.55;;;11.90;99.90;;;;;;4997338;28;20076;-63
2022/04/30 11:24:30;;;;;;;4.03;3.30;;;11.80;99.90;;;;;;4998550;28;20862;-63
2022/04/30 11:27:03;;;;;;;6.95;4.65;;;12.00;99.90;;;;;;4997496;28;20057;-63
2022/04/30 11:29:29;;;;;;;4.78;3.97;;;12.10;99.90;;;;;;4998129;28;20073;-63
2022/04/30 11:31:56;;;;;;;4.45;3.47;;;12.20;99.90;;;;;;4999280;28;20048;-64
2022/04/30 11:34:22;;;;;;;4.72;3.20;;;12.10;99.90;;;;;;4994600;28;20116;-66
2022/04/30 11:36:56;;;;;;;5.55;4.45;;;12.30;99.90;;;;;;4995628;28;20104;-66
2022/04/30 11:39:23;;;;;;;4.65;2.90;;;12.10;99.90;;;;;;4997085;28;20063;-66
2022/04/30 11:41:53;;;;;;;4.97;3.90;;;12.30;99.90;;;;;;4996654;28;20120;-66
2022/04/30 11:44:22;;;;;;;5.78;3.40;;;12.30;99.90;;;;;;4995974;28;20163;-66
2022/04/30 11:46:53;;;;;;;4.22;3.10;;;12.30;99.90;;;;;;4994676;28;20045;-64
2022/04/30 11:49:26;;;;;;;3.88;2.90;;;12.40;99.90;;;;;;4997192;28;20096;-65
2022/04/30 11:51:54;;;;;;;4.85;3.67;;;12.30;99.90;;;;;;4995215;28;20938;-65
2022/04/30 11:54:25;;;;;;;5.65;3.90;;;12.30;99.90;;;;;;4996325;28;20054;-66
2022/04/30 11:56:52;;;;;;;5.72;3.20;;;12.30;99.90;;;;;;4993453;28;20045;-65
2022/04/30 11:59:36;;;;;;;3.80;3.17;;;12.20;99.90;;;;;;4990417;28;20107;-65
2022/04/30 12:02:04;;;;;;;4.40;3.38;;;12.30;99.90;;;;;;4996390;28;20038;-65
2022/04/30 12:04:37;;;;;;;4.43;3.17;;;12.20;99.90;;;;;;4993343;28;20132;-65
2022/04/30 12:07:08;;;;;;;4.43;3.15;;;12.30;99.90;;;;;;4999660;28;20041;-64
2022/04/30 12:09:37;;;;;;;10.13;3.45;;;12.30;99.90;;;;;;5008673;28;20132;-65
2022/04/30 12:12:17;;;;;;;2.97;2.35;;;12.50;99.90;;;;;;5000500;28;20088;-64
2022/04/30 12:14:48;;;;;;;3.55;2.90;;;12.60;99.90;;;;;;4998304;28;20053;-64
2022/04/30 12:17:13;;;;;;;3.30;2.75;;;12.60;99.90;;;;;;4994006;28;20073;-64
2022/04/30 12:25:20;;;;;;;4.50;3.72;;;12.50;99.90;;;;;;5003391;28;20042;-65
2022/04/30 12:27:59;;;;;;;3.78;3.05;;;12.60;99.90;;;;;;5006649;28;20470;-65
2022/04/30 12:30:26;;;;;;;3.38;2.97;;;12.30;98.10;;;;;;5001030;28;20037;-64
2022/04/30 12:33:10;;;;;;;5.13;3.33;;;12.10;98.40;;;;;;4998928;28;20305;-65
2022/04/30 12:35:40;;;;;;;3.63;3.28;;;12.20;99.10;;;;;;4993478;28;20060;-65
2022/04/30 12:38:14;;;;;;;5.28;3.45;;;12.30;99.20;;;;;;4995999;28;20075;-65
2022/04/30 12:40:44;;;;;;;4.07;3.13;;;12.50;99.80;;;;;;5000009;28;20073;-65
2022/04/30 12:43:10;;;;;;;7.07;3.92;;;12.50;99.60;;;;;;5000295;28;20065;-65
2022/04/30 12:45:39;;;;;;;4.22;3.20;;;12.60;98.10;;;;;;5001530;28;20268;-65
2022/04/30 12:48:05;;;;;;;6.60;3.67;;;12.70;99.40;;;;;;5001589;28;20071;-64
2022/04/30 12:50:32;;;;;;;6.18;3.42;;;12.70;99.40;;;;;;4996267;28;20803;-64
2022/04/30 12:52:59;;;;;;;4.50;3.40;;;12.70;97.90;;;;;;4995037;28;20425;-65
2022/04/30 12:55:25;;;;;;;4.07;2.97;;;12.90;99.00;;;;;;4998296;28;20054;-65
2022/04/30 12:57:51;;;;;;;5.00;3.50;;;12.90;99.20;;;;;;4999345;28;20037;-65
2022/04/30 13:00:18;;;;;;;6.05;3.50;;;13.00;99.10;;;;;;4998643;28;20572;-65
2022/04/30 13:02:44;;;;;;;4.45;3.33;;;13.10;99.20;;;;;;4998043;28;20046;-65
2022/04/30 13:05:12;;;;;;;4.10;3.15;;;13.10;97.90;;;;;;5001049;28;20512;-65
2022/04/30 13:07:40;;;;;;;3.20;2.90;;;13.10;98.60;;;;;;5005450;28;20057;-65
2022/04/30 13:15:35;;;;;;;6.90;3.47;;;13.00;98.50;;;;;;5005718;28;20052;-65
2022/04/30 13:18:02;;;;;;;5.95;3.65;;;13.00;97.70;;;;;;4998931;28;20061;-65
2022/04/30 13:20:28;;;;;;;4.60;4.05;;;13.10;98.10;;;;;;5000358;28;20153;-65
2022/04/30 13:22:56;;;;;;;4.57;3.05;;;13.00;98.20;;;;;;5000669;28;20038;-64
2022/04/30 13:25:23;;;;;;;3.58;3.28;;;13.20;98.80;;;;;;4999729;28;20160;-65
2022/04/30 13:27:49;;;;;;;3.05;2.70;;;13.00;96.90;;;;;;4999278;28;20049;-65
2022/04/30 13:30:15;;;;;;;4.43;3.20;;;13.10;97.30;;;;;;4997059;28;22191;-65
2022/04/30 13:32:42;;;;;;;4.57;4.03;;;13.20;98.10;;;;;;4995511;28;20073;-65
2022/04/30 13:35:08;;;;;;;3.05;2.72;;;13.40;97.30;;;;;;4996936;28;20081;-65
2022/04/30 13:37:40;;;;;;;3.60;2.95;;;13.30;97.50;;;;;;5001129;28;20053;-65
2022/04/30 13:40:09;;;;;;;3.78;3.22;;;13.60;97.80;;;;;;4994802;28;20053;-64
2022/04/30 13:42:35;;;;;;;3.17;2.70;;;13.80;97.50;;;;;;4994319;28;20048;-66
2022/04/30 13:45:01;;;;;;;4.25;2.70;;;13.80;96.20;;;;;;4993450;28;20050;-65